Airport View

Enter AWOS ICAO identifier for current METAR.

ex. KFNL

KCAG 192253Z AUTO 30006KT 10SM CLR 17/M05 A3005 RMK AO2 SLP142 T01721050

19 Oct 2020 23:35

Frequency: 135.425

Phone: 970-824-2373

Other Area AWOS: KHDN - KSBS - KEEO - KDWX

TAF AMD KEGE 191806Z 1918/2018 26015G24KT P6SM SCT250 FM200200 12008KT P6SM FEW250